createdAt,value
2023-05-05T00:01:34.228Z,0.58
2023-05-05T00:04:01.372Z,0.42
2023-05-05T00:06:31.567Z,0.53
2023-05-05T00:08:58.595Z,0.51
2023-05-05T00:11:26.353Z,0.48
2023-05-05T00:13:53.577Z,0.39
2023-05-05T00:16:20.829Z,0.46
2023-05-05T00:18:48.196Z,0.44
2023-05-05T00:21:15.809Z,0.40
2023-05-05T00:23:42.824Z,0.37
2023-05-05T00:26:09.927Z,0.37
2023-05-05T00:28:38.358Z,0.27
2023-05-05T00:31:05.480Z,0.30
2023-05-05T00:33:32.649Z,0.31
2023-05-05T00:35:59.666Z,0.31
2023-05-05T00:38:26.802Z,0.27
2023-05-05T00:40:54.138Z,0.22
2023-05-05T00:43:21.157Z,0.18
2023-05-05T00:45:57.537Z,0.12
2023-05-05T00:48:25.881Z,0.03
2023-05-05T00:50:53.184Z,0.06
2023-05-05T00:53:20.493Z,0.06
2023-05-05T00:55:47.685Z,0.03
2023-05-05T00:58:15.003Z,0.03
2023-05-05T01:00:42.160Z,-0.01
2023-05-05T01:03:10.432Z,-0.01
2023-05-05T01:06:04.453Z,-0.03
2023-05-05T01:08:43.539Z,-0.04
2023-05-05T01:11:20.840Z,-0.07
2023-05-05T01:14:24.578Z,-0.14
2023-05-05T01:17:00.581Z,-0.10
2023-05-05T01:20:01.585Z,-0.12
2023-05-05T01:22:36.761Z,-0.12
2023-05-05T01:25:27.169Z,-0.14
2023-05-05T01:28:11.426Z,-0.17
2023-05-05T01:31:00.596Z,-0.20
2023-05-05T01:33:32.001Z,-0.31
2023-05-05T01:36:07.651Z,-0.30
2023-05-05T01:38:46.094Z,-0.29
2023-05-05T01:41:19.509Z,-0.31
2023-05-05T01:43:50.460Z,-0.33
2023-05-05T01:46:19.169Z,-0.37
2023-05-05T01:48:49.042Z,-0.38
2023-05-05T01:51:18.190Z,-0.40
2023-05-05T01:53:47.339Z,-0.44
2023-05-05T01:56:16.455Z,-0.47
2023-05-05T01:58:45.272Z,-0.50
2023-05-05T02:01:13.927Z,-0.53
2023-05-05T02:03:42.492Z,-0.57
2023-05-05T02:06:11.651Z,-0.99
2023-05-05T02:08:39.651Z,-0.77
2023-05-05T02:11:10.091Z,-0.64
2023-05-05T02:13:42.798Z,-0.91
2023-05-05T02:16:58.012Z,-0.69
2023-05-05T02:20:08.141Z,-0.76
2023-05-05T02:23:15.408Z,-0.76
2023-05-05T02:26:28.098Z,-0.81
2023-05-05T02:29:41.738Z,-1.08
2023-05-05T02:32:54.959Z,-0.84
2023-05-05T02:36:07.214Z,-1.05
2023-05-05T02:39:22.962Z,-0.89
2023-05-05T02:42:33.363Z,-0.92
2023-05-05T02:45:43.325Z,-0.96
2023-05-05T02:48:50.795Z,-1.21
2023-05-05T02:51:57.809Z,-0.99
2023-05-05T02:55:07.452Z,-1.01
2023-05-05T02:58:35.309Z,-1.01
2023-05-05T03:01:55.963Z,-1.06
2023-05-05T03:05:10.653Z,-1.03
2023-05-05T03:08:29.861Z,-1.05
2023-05-05T03:11:51.974Z,-1.19
2023-05-05T03:15:05.126Z,-1.07
2023-05-05T03:18:14.120Z,-1.13
2023-05-05T03:21:28.099Z,-1.07
2023-05-05T03:24:37.314Z,-1.06
2023-05-05T03:27:48.028Z,-1.05
2023-05-05T03:30:58.622Z,-1.08
2023-05-05T03:34:06.137Z,-1.00
2023-05-05T03:37:20.857Z,-1.09
2023-05-05T03:40:40.486Z,-0.96
2023-05-05T03:43:52.710Z,-0.95
2023-05-05T03:46:59.812Z,-0.91
2023-05-05T03:50:08.591Z,-0.89
2023-05-05T03:53:16.053Z,-0.94
2023-05-05T03:56:23.981Z,-0.83
2023-05-05T03:59:32.100Z,-0.80
2023-05-05T04:02:39.145Z,-0.81
2023-05-05T04:05:46.534Z,-0.67
2023-05-05T04:08:53.704Z,-0.62
2023-05-05T04:12:00.701Z,-0.61
2023-05-05T04:15:07.799Z,-0.53
2023-05-05T04:18:15.166Z,-0.45
2023-05-05T04:21:22.318Z,-0.38
2023-05-05T04:24:29.607Z,-0.34
2023-05-05T04:27:36.571Z,-0.25
2023-05-05T04:30:43.664Z,-0.31
2023-05-05T04:33:50.737Z,-0.18
2023-05-05T04:36:37.745Z,-0.07
2023-05-05T04:39:07.203Z,0.01
2023-05-05T04:41:34.852Z,-0.22
2023-05-05T04:44:02.121Z,0.08
2023-05-05T04:46:29.405Z,0.22
2023-05-05T04:48:58.564Z,0.30
2023-05-05T04:51:31.167Z,0.32
2023-05-05T04:53:58.647Z,0.44
2023-05-05T04:56:30.369Z,0.48
2023-05-05T04:58:57.639Z,0.60
2023-05-05T05:01:24.758Z,0.57
2023-05-05T05:03:51.955Z,0.72
2023-05-05T05:06:19.188Z,0.37
2023-05-05T05:08:46.168Z,0.90
2023-05-05T05:11:14.415Z,0.94
2023-05-05T05:13:41.887Z,0.90
2023-05-05T05:16:09.081Z,1.15
2023-05-05T05:18:36.554Z,1.24
2023-05-05T05:21:03.968Z,1.18
2023-05-05T05:23:31.591Z,1.25
2023-05-05T05:25:58.860Z,1.35
2023-05-05T05:28:27.038Z,1.44
2023-05-05T05:30:58.206Z,1.69
2023-05-05T05:33:25.961Z,1.61
2023-05-05T05:35:55.331Z,1.85
2023-05-05T05:38:22.322Z,1.90
2023-05-05T05:44:45.163Z,2.08
2023-05-05T05:47:52.124Z,2.25
2023-05-05T05:50:59.139Z,2.27
2023-05-05T05:54:06.580Z,2.45
2023-05-05T05:57:13.950Z,2.59
2023-05-05T06:00:20.906Z,2.64
2023-05-05T06:03:34.692Z,2.67
2023-05-05T06:06:41.809Z,2.94
2023-05-05T06:09:48.693Z,3.02
2023-05-05T06:12:55.751Z,2.96
2023-05-05T06:16:02.971Z,3.28
2023-05-05T06:19:09.906Z,3.37
2023-05-05T06:22:17.871Z,3.46
2023-05-05T06:25:25.066Z,3.51
2023-05-05T06:28:32.493Z,3.62
2023-05-05T06:31:39.585Z,3.55
2023-05-05T06:34:46.535Z,3.57
2023-05-05T06:37:53.566Z,3.66
2023-05-05T06:41:00.558Z,3.93
2023-05-05T06:44:07.538Z,3.82
2023-05-05T06:47:14.473Z,3.90
2023-05-05T06:50:21.235Z,3.96
2023-05-05T06:53:28.496Z,4.07
2023-05-05T06:56:35.289Z,4.25
2023-05-05T06:59:42.326Z,4.30
2023-05-05T07:02:49.286Z,4.36
2023-05-05T07:05:56.334Z,4.42
2023-05-05T07:09:03.372Z,4.40
2023-05-05T07:12:10.359Z,4.60
2023-05-05T07:15:27.398Z,4.53
2023-05-05T07:18:36.715Z,4.71
2023-05-05T07:21:43.712Z,4.81
2023-05-05T07:24:51.717Z,4.89
2023-05-05T07:27:59.290Z,4.96
2023-05-05T07:31:06.223Z,5.04
2023-05-05T07:34:13.196Z,5.10
2023-05-05T07:37:20.235Z,5.12
2023-05-05T07:40:27.772Z,5.22
2023-05-05T07:43:34.971Z,5.22
2023-05-05T07:46:41.845Z,5.36
2023-05-05T07:49:49.517Z,5.39
2023-05-05T07:53:02.358Z,5.44
2023-05-05T07:56:21.757Z,5.54
2023-05-05T07:59:28.682Z,5.59
2023-05-05T08:02:35.692Z,5.63
2023-05-05T08:05:42.572Z,5.70
2023-05-05T08:08:49.685Z,5.72
2023-05-05T08:11:56.669Z,5.77
2023-05-05T08:15:03.625Z,5.77
2023-05-05T08:18:12.451Z,5.87
2023-05-05T08:21:19.521Z,5.94
2023-05-05T08:24:26.361Z,5.72
2023-05-05T08:27:33.449Z,6.05
2023-05-05T08:30:40.389Z,6.08
2023-05-05T08:33:27.728Z,6.10
2023-05-05T08:36:14.779Z,6.13
2023-05-05T08:39:04.864Z,6.26
2023-05-05T08:41:53.271Z,6.34
2023-05-05T08:44:40.208Z,6.43
2023-05-05T08:47:30.769Z,6.41
2023-05-05T08:50:19.822Z,6.61
2023-05-05T08:53:12.814Z,6.67
2023-05-05T08:56:15.275Z,6.77
2023-05-05T08:59:03.208Z,6.90
2023-05-05T09:01:52.444Z,6.96
2023-05-05T09:04:39.759Z,7.06
2023-05-05T09:07:26.932Z,7.04
2023-05-05T09:10:14.152Z,7.19
2023-05-05T09:13:01.669Z,7.40
2023-05-05T09:15:48.633Z,7.36
2023-05-05T09:18:36.075Z,7.52
2023-05-05T09:21:39.353Z,7.49
2023-05-05T09:24:32.981Z,7.71
2023-05-05T09:27:20.184Z,7.77
2023-05-05T09:30:09.356Z,7.81
2023-05-05T09:33:10.447Z,7.98
2023-05-05T09:36:14.673Z,8.09
2023-05-05T09:39:01.712Z,8.14
2023-05-05T09:41:59.561Z,8.15
2023-05-05T09:44:54.562Z,8.13
2023-05-05T09:47:41.834Z,8.07
2023-05-05T09:50:29.417Z,8.15
2023-05-05T09:53:18.231Z,8.21
2023-05-05T09:56:15.789Z,8.27
2023-05-05T09:59:02.887Z,8.21
2023-05-05T10:01:50.193Z,8.46
2023-05-05T10:04:50.520Z,8.71
2023-05-05T10:07:47.090Z,8.96
2023-05-05T10:10:36.147Z,9.12
2023-05-05T10:13:23.297Z,9.47
2023-05-05T10:16:17.585Z,9.66
2023-05-05T10:19:06.532Z,9.76
2023-05-05T10:21:59.943Z,9.77
2023-05-05T10:24:57.611Z,9.76
2023-05-05T10:27:47.972Z,9.70
2023-05-05T10:30:43.551Z,9.61
2023-05-05T10:33:40.215Z,9.51
2023-05-05T10:36:27.963Z,9.39
2023-05-05T10:39:18.961Z,9.55
2023-05-05T10:42:07.085Z,9.83
2023-05-05T10:44:54.308Z,9.95
2023-05-05T10:47:43.080Z,10.02
2023-05-05T10:50:47.042Z,10.11
2023-05-05T10:53:42.176Z,10.29
2023-05-05T10:56:37.270Z,10.39
2023-05-05T10:59:56.313Z,10.43
2023-05-05T11:02:47.921Z,10.32
2023-05-05T11:05:39.398Z,10.28
2023-05-05T11:08:45.405Z,10.19
2023-05-05T11:11:33.671Z,10.29
2023-05-05T11:14:39.999Z,10.31
2023-05-05T11:18:07.482Z,10.33
2023-05-05T11:21:00.927Z,10.35
2023-05-05T11:23:48.552Z,10.41
2023-05-05T11:26:37.149Z,10.47
2023-05-05T11:29:24.810Z,10.72
2023-05-05T11:32:38.006Z,10.92
2023-05-05T11:35:26.130Z,11.06
2023-05-05T11:38:26.813Z,11.22
2023-05-05T11:41:21.743Z,11.35
2023-05-05T11:44:08.823Z,11.42
2023-05-05T11:46:56.303Z,11.34
2023-05-05T11:49:57.227Z,11.60
2023-05-05T11:52:46.385Z,11.60
2023-05-05T11:55:39.091Z,11.80
2023-05-05T11:58:38.665Z,11.84
2023-05-05T12:01:29.192Z,11.74
2023-05-05T12:04:16.468Z,11.75
2023-05-05T12:07:05.129Z,11.80
2023-05-05T12:09:52.921Z,11.78
2023-05-05T12:12:40.224Z,11.73
2023-05-05T12:15:28.392Z,11.44
2023-05-05T12:18:15.391Z,11.46
2023-05-05T12:21:02.666Z,11.39
2023-05-05T12:23:58.152Z,11.24
2023-05-05T12:26:46.646Z,11.11
2023-05-05T12:29:33.649Z,11.04
2023-05-05T12:32:21.079Z,10.95
2023-05-05T12:35:09.143Z,10.82
2023-05-05T12:37:56.569Z,10.72
2023-05-05T12:41:06.447Z,10.63
2023-05-05T12:43:55.285Z,10.61
2023-05-05T12:46:42.936Z,10.63
2023-05-05T12:49:30.108Z,10.68
2023-05-05T12:52:17.214Z,10.74
2023-05-05T12:55:19.034Z,10.85
2023-05-05T12:58:21.767Z,10.92
2023-05-05T13:01:28.569Z,11.02
2023-05-05T13:04:32.396Z,11.05
2023-05-05T13:07:35.928Z,11.07
2023-05-05T13:10:28.512Z,10.94
2023-05-05T13:13:16.349Z,11.04
2023-05-05T13:16:03.542Z,10.95
2023-05-05T13:18:50.597Z,10.97
2023-05-05T13:21:37.646Z,11.03
2023-05-05T13:24:37.996Z,11.18
2023-05-05T13:27:29.793Z,11.18
2023-05-05T13:30:16.923Z,11.21
2023-05-05T13:33:03.907Z,11.23
2023-05-05T13:35:51.047Z,11.26
2023-05-05T13:38:38.156Z,11.07
2023-05-05T13:41:25.236Z,11.25
2023-05-05T13:44:12.263Z,11.21
2023-05-05T13:46:59.605Z,11.24
2023-05-05T13:49:46.738Z,11.24
2023-05-05T13:52:33.709Z,11.19
2023-05-05T13:55:20.887Z,11.07
2023-05-05T13:58:08.533Z,11.07
2023-05-05T14:00:55.968Z,10.88
2023-05-05T14:03:43.275Z,10.96
2023-05-05T14:06:30.241Z,10.96
2023-05-05T14:09:17.600Z,10.91
2023-05-05T14:12:04.609Z,10.83
2023-05-05T14:14:51.723Z,10.77
2023-05-05T14:17:38.773Z,10.73
2023-05-05T14:20:26.940Z,10.56
2023-05-05T14:23:17.168Z,10.77
2023-05-05T14:26:04.442Z,10.79
2023-05-05T14:28:51.352Z,10.70
2023-05-05T14:31:38.649Z,10.59
2023-05-05T14:34:25.722Z,10.51
2023-05-05T14:37:12.858Z,10.34
2023-05-05T14:39:59.950Z,10.35
2023-05-05T14:42:47.126Z,10.35
2023-05-05T14:45:34.256Z,10.31
2023-05-05T14:48:21.382Z,10.39
2023-05-05T14:51:08.808Z,10.39
2023-05-05T14:53:55.885Z,10.43
2023-05-05T14:56:42.993Z,10.37
2023-05-05T14:59:30.163Z,10.24
2023-05-05T15:02:17.156Z,10.40
2023-05-05T15:05:04.411Z,10.44
2023-05-05T15:07:51.403Z,10.43
2023-05-05T15:10:38.585Z,10.61
2023-05-05T15:13:25.671Z,10.62
2023-05-05T15:16:12.797Z,10.73
2023-05-05T15:18:59.922Z,10.69
2023-05-05T15:21:47.279Z,10.81
2023-05-05T15:24:34.269Z,11.01
2023-05-05T15:27:21.426Z,10.84
2023-05-05T15:30:08.344Z,11.13
2023-05-05T15:32:55.800Z,11.21
2023-05-05T15:35:42.921Z,11.04
2023-05-05T15:38:30.180Z,11.27
2023-05-05T15:41:17.428Z,11.28
2023-05-05T15:44:04.633Z,11.27
2023-05-05T15:46:52.245Z,11.07
2023-05-05T15:49:39.359Z,11.12
2023-05-05T15:52:26.527Z,11.21
2023-05-05T15:55:13.631Z,11.22
2023-05-05T15:58:01.045Z,11.24
2023-05-05T16:00:48.387Z,11.22
2023-05-05T16:03:35.627Z,10.98
2023-05-05T16:06:23.425Z,11.07
2023-05-05T16:09:10.676Z,11.03
2023-05-05T16:11:57.792Z,11.02
2023-05-05T16:14:44.804Z,10.99
2023-05-05T16:17:31.955Z,11.08
2023-05-05T16:20:19.063Z,11.01
2023-05-05T16:23:06.075Z,11.26
2023-05-05T16:25:53.030Z,11.34
2023-05-05T16:28:40.129Z,11.05
2023-05-05T16:31:27.436Z,11.40
2023-05-05T16:34:14.817Z,11.34
2023-05-05T16:37:01.998Z,11.24
2023-05-05T16:39:49.336Z,11.26
2023-05-05T16:42:36.249Z,11.40
2023-05-05T16:45:23.741Z,11.41
2023-05-05T16:48:10.729Z,11.39
2023-05-05T16:50:57.896Z,11.42
2023-05-05T16:53:46.660Z,11.38
2023-05-05T16:56:35.428Z,11.28
2023-05-05T16:59:22.389Z,11.15
2023-05-05T17:02:09.766Z,11.05
2023-05-05T17:04:56.964Z,10.97
2023-05-05T17:07:44.216Z,10.92
2023-05-05T17:10:34.665Z,10.82
2023-05-05T17:13:21.885Z,10.68
2023-05-05T17:16:09.593Z,10.61
2023-05-05T17:18:56.534Z,10.50
2023-05-05T17:21:43.697Z,10.33
2023-05-05T17:24:30.959Z,10.27
2023-05-05T17:27:18.150Z,10.17
2023-05-05T17:30:05.341Z,10.02
2023-05-05T17:32:52.477Z,9.94
2023-05-05T17:35:39.915Z,9.85
2023-05-05T17:38:27.034Z,9.76
2023-05-05T17:41:14.175Z,9.64
2023-05-05T17:44:01.159Z,9.60
2023-05-05T17:46:48.218Z,9.49
2023-05-05T17:49:35.357Z,9.31
2023-05-05T17:52:22.530Z,8.85
2023-05-05T17:55:10.219Z,9.00
2023-05-05T17:57:57.553Z,8.93
2023-05-05T18:00:44.901Z,8.81
2023-05-05T18:03:31.976Z,8.52
2023-05-05T18:06:19.113Z,8.52
2023-05-05T18:09:06.186Z,8.44
2023-05-05T18:11:53.242Z,8.35
2023-05-05T18:14:40.512Z,8.03
2023-05-05T18:17:27.513Z,8.12
2023-05-05T18:20:14.557Z,8.08
2023-05-05T18:23:01.511Z,7.90
2023-05-05T18:25:48.597Z,7.87
2023-05-05T18:28:35.488Z,7.82
2023-05-05T18:31:22.676Z,7.47
2023-05-05T18:34:11.821Z,7.55
2023-05-05T18:36:59.339Z,7.55
2023-05-05T18:39:46.371Z,7.45
2023-05-05T18:42:33.569Z,7.32
2023-05-05T18:45:20.754Z,7.21
2023-05-05T18:48:08.017Z,7.23
2023-05-05T18:50:56.740Z,7.11
2023-05-05T18:53:43.956Z,7.07
2023-05-05T18:56:31.060Z,6.81
2023-05-05T18:59:18.070Z,6.94
2023-05-05T19:02:05.237Z,6.86
2023-05-05T19:04:52.433Z,6.75
2023-05-05T19:07:39.461Z,6.71
2023-05-05T19:10:27.098Z,6.65
2023-05-05T19:13:14.323Z,6.60
2023-05-05T19:16:01.520Z,6.44
2023-05-05T19:18:48.538Z,6.47
2023-05-05T19:21:35.688Z,6.41
2023-05-05T19:24:22.768Z,6.34
2023-05-05T19:27:09.794Z,6.24
2023-05-05T19:29:56.671Z,6.23
2023-05-05T19:32:43.976Z,6.18
2023-05-05T19:35:31.977Z,6.13
2023-05-05T19:38:19.257Z,6.08
2023-05-05T19:41:06.362Z,6.01
2023-05-05T19:43:53.721Z,5.96
2023-05-05T19:46:40.769Z,5.78
2023-05-05T19:49:28.169Z,5.68
2023-05-05T19:52:15.397Z,5.78
2023-05-05T19:55:02.506Z,5.59
2023-05-05T19:57:49.409Z,5.54
2023-05-05T20:00:36.552Z,5.55
2023-05-05T20:03:23.620Z,5.55
2023-05-05T20:06:10.644Z,5.44
2023-05-05T20:08:57.782Z,5.45
2023-05-05T20:11:45.724Z,5.36
2023-05-05T20:14:32.675Z,5.36
2023-05-05T20:17:19.756Z,5.30
2023-05-05T20:20:06.708Z,5.31
2023-05-05T20:22:53.878Z,5.28
2023-05-05T20:25:40.825Z,5.25
2023-05-05T20:28:27.719Z,5.10
2023-05-05T20:31:14.749Z,5.13
2023-05-05T20:34:01.978Z,4.97
2023-05-05T20:36:48.979Z,5.11
2023-05-05T20:39:36.300Z,5.02
2023-05-05T20:42:23.307Z,4.91
2023-05-05T20:45:10.304Z,4.89
2023-05-05T20:47:57.291Z,4.93
2023-05-05T20:50:44.591Z,4.91
2023-05-05T20:53:32.310Z,4.87
2023-05-05T20:56:19.410Z,4.82
2023-05-05T20:59:06.384Z,4.70
2023-05-05T21:01:53.526Z,4.76
2023-05-05T21:04:40.536Z,4.74
2023-05-05T21:07:27.634Z,4.71
2023-05-05T21:10:14.522Z,4.68
2023-05-05T21:13:01.766Z,4.66
2023-05-05T21:15:49.136Z,4.54
2023-05-05T21:18:36.280Z,4.52
2023-05-05T21:21:23.369Z,4.40
2023-05-05T21:24:10.372Z,4.54
2023-05-05T21:26:57.486Z,4.45
2023-05-05T21:29:44.793Z,4.51
2023-05-05T21:32:32.450Z,4.47
2023-05-05T21:35:19.648Z,4.33
2023-05-05T21:38:06.616Z,4.46
2023-05-05T21:40:53.829Z,4.42
2023-05-05T21:43:41.205Z,4.35
2023-05-05T21:46:28.959Z,4.31
2023-05-05T21:49:16.046Z,4.35
2023-05-05T21:52:04.686Z,4.34
2023-05-05T21:54:51.879Z,4.33
2023-05-05T21:57:39.100Z,4.30
2023-05-05T22:00:26.973Z,4.26
2023-05-05T22:03:14.132Z,4.06
2023-05-05T22:06:01.210Z,4.17
2023-05-05T22:08:48.400Z,4.08
2023-05-05T22:11:35.751Z,3.99
2023-05-05T22:14:22.845Z,4.19
2023-05-05T22:17:09.757Z,4.22
2023-05-05T22:19:56.982Z,4.07
2023-05-05T22:22:44.003Z,4.21
2023-05-05T22:25:31.344Z,4.03
2023-05-05T22:28:18.656Z,4.20
2023-05-05T22:31:06.025Z,4.19
2023-05-05T22:33:53.058Z,4.17
2023-05-05T22:36:40.215Z,4.18
2023-05-05T22:39:27.150Z,4.11
2023-05-05T22:42:14.218Z,4.16
2023-05-05T22:45:01.453Z,4.16
2023-05-05T22:47:48.661Z,4.16
2023-05-05T22:50:35.616Z,4.16
2023-05-05T22:53:22.690Z,4.16
2023-05-05T22:56:09.849Z,4.08
2023-05-05T22:58:56.900Z,4.15
2023-05-05T23:01:43.928Z,3.99
2023-05-05T23:04:31.153Z,4.10
2023-05-05T23:07:18.332Z,4.11
2023-05-05T23:10:09.234Z,4.12
2023-05-05T23:12:56.208Z,4.07
2023-05-05T23:15:43.439Z,4.08
2023-05-05T23:18:30.487Z,4.08
2023-05-05T23:21:17.623Z,3.78
2023-05-05T23:24:04.670Z,4.03
2023-05-05T23:26:51.755Z,4.00
2023-05-05T23:29:39.418Z,3.99
2023-05-05T23:32:26.567Z,4.06
2023-05-05T23:35:13.565Z,3.94
2023-05-05T23:38:00.575Z,4.02
2023-05-05T23:40:47.636Z,4.04
2023-05-05T23:43:34.916Z,4.03
2023-05-05T23:46:22.046Z,4.01
2023-05-05T23:49:09.138Z,4.02
2023-05-05T23:51:56.399Z,4.01
2023-05-05T23:54:43.474Z,4.02
2023-05-05T23:57:30.731Z,3.97
